Archival Weather

Chicago O'Hare International

Chicago, Illinois (KORD)

Report from: Saturday, March 5, 2022 9:51 AM CST
Current time: Saturday, February 4, 2023 11:09 PM CST

Current weather
Weather history
Weather forecast

Temperature13.9°C (57.0°F)
Dew point2.2°C (36.0°F)
Winds 10 kts (5.1 m/s, 11.5 mph) South (190°)
Wind gusts 20 kts (10.3 m/s, 23 mph)
Visibility10 mi. (16.1 km)
Clouds Few clouds 8,000 ft. (2,438 m)
Scattered clouds 15,000 ft. (4,572 m)
Scattered clouds 20,000 ft. (6,096 m)
Ceiling: Broken clouds 25,000 ft. (7,620 m)
Altimeter29.89 in.Hg (1012 mB)
Relative humidity45 %
Density altitude14 ft. (4 m)
Sea-level pressure101.2 kPa (1012 mB, 29.90 in.Hg)
Remarks Automated weather observing station with precipitation discriminator
Flight conditions Visual Meteorological Conditions
Raw dataKORD 051551Z 19010G20KT 10SM FEW080 SCT150 SCT200 BKN250 14/02 A2989 RMK AO2 SLP124 T01390022
An unhandled exception has occurred. See browser dev tools for details. Reload 🗙